createdAt,value
2024-01-15T00:00:01.212Z,96387.09
2024-01-15T00:02:34.670Z,96374.91
2024-01-15T00:05:03.595Z,96369.91
2024-01-15T00:07:31.951Z,96352.25
2024-01-15T00:10:02.499Z,96351.22
2024-01-15T00:12:34.810Z,96339.03
2024-01-15T00:15:03.410Z,96331.28
2024-01-15T00:17:31.625Z,96341.94
2024-01-15T00:20:00.330Z,96339.50
2024-01-15T00:22:28.994Z,96337.59
2024-01-15T00:24:57.629Z,96334.50
2024-01-15T00:27:27.314Z,96342.38
2024-01-15T00:29:56.326Z,96335.41
2024-01-15T00:32:24.583Z,96334.13
2024-01-15T00:34:53.271Z,96329.53
2024-01-15T00:37:21.598Z,96325.63
2024-01-15T00:39:50.305Z,96313.41
2024-01-15T00:42:18.971Z,96319.53
2024-01-15T00:44:48.846Z,96316.00
2024-01-15T00:47:17.248Z,96302.84
2024-01-15T00:49:46.382Z,96319.06
2024-01-15T00:52:14.643Z,96306.59
2024-01-15T00:54:43.461Z,96314.34
2024-01-15T00:57:11.889Z,96295.38
2024-01-15T00:59:41.186Z,96307.19
2024-01-15T01:02:11.086Z,96302.47
2024-01-15T01:04:39.790Z,96293.56
2024-01-15T01:07:08.405Z,96291.72
2024-01-15T01:09:37.333Z,96290.38
2024-01-15T01:12:07.327Z,96285.81
2024-01-15T01:14:36.267Z,96275.06
2024-01-15T01:17:04.693Z,96279.41
2024-01-15T01:19:34.766Z,96274.47
2024-01-15T01:22:03.130Z,96268.34
2024-01-15T01:24:31.650Z,96271.28
2024-01-15T01:27:00.081Z,96267.97
2024-01-15T01:29:28.995Z,96255.53
2024-01-15T01:31:57.840Z,96270.50
2024-01-15T01:34:26.490Z,96264.91
2024-01-15T01:36:56.249Z,96261.31
2024-01-15T01:39:24.700Z,96255.19
2024-01-15T01:41:53.186Z,96242.97
2024-01-15T01:44:21.772Z,96243.75
2024-01-15T01:46:50.178Z,96229.13
2024-01-15T01:49:19.133Z,96234.81
2024-01-15T01:51:47.666Z,96230.13
2024-01-15T01:54:17.749Z,96227.50
2024-01-15T01:56:46.189Z,96226.16
2024-01-15T01:59:15.115Z,96221.25
2024-01-15T02:01:44.164Z,96203.41
2024-01-15T02:04:14.071Z,96200.31
2024-01-15T02:06:43.178Z,96214.94
2024-01-15T02:09:11.962Z,96214.88
2024-01-15T02:11:41.907Z,96221.09
2024-01-15T02:14:11.586Z,96212.22
2024-01-15T02:16:39.819Z,96198.50
2024-01-15T02:19:09.066Z,96214.84
2024-01-15T02:21:37.406Z,96198.72
2024-01-15T02:24:07.937Z,96204.44
2024-01-15T02:26:38.303Z,96209.28
2024-01-15T02:29:07.373Z,96209.69
2024-01-15T02:31:35.735Z,96196.22
2024-01-15T02:34:04.406Z,96195.00
2024-01-15T02:36:32.985Z,96182.66
2024-01-15T02:39:01.659Z,96171.34
2024-01-15T02:41:31.445Z,96157.31
2024-01-15T02:44:00.180Z,96161.66
2024-01-15T02:46:28.602Z,96163.44
2024-01-15T02:48:57.353Z,96165.06
2024-01-15T02:51:25.986Z,96140.09
2024-01-15T02:53:54.670Z,96151.25
2024-01-15T02:56:22.965Z,96150.22
2024-01-15T02:58:52.730Z,96148.41
2024-01-15T03:01:21.612Z,96149.84
2024-01-15T03:03:50.339Z,96141.44
2024-01-15T03:06:18.769Z,96141.47
2024-01-15T03:08:47.294Z,96123.00
2024-01-15T03:11:15.605Z,96134.50
2024-01-15T03:13:44.688Z,96125.25
2024-01-15T03:16:14.399Z,96119.31
2024-01-15T03:18:43.229Z,96109.25
2024-01-15T03:21:11.439Z,96092.31
2024-01-15T03:23:40.254Z,96101.97
2024-01-15T03:26:08.408Z,96105.16
2024-01-15T03:28:37.082Z,96102.16
2024-01-15T03:31:05.759Z,96095.06
2024-01-15T03:33:35.814Z,96105.63
2024-01-15T03:36:04.194Z,96105.50
2024-01-15T03:38:32.970Z,96093.50
2024-01-15T03:41:01.146Z,96093.84
2024-01-15T03:43:30.095Z,96078.09
2024-01-15T03:45:58.361Z,96080.00
2024-01-15T03:48:27.384Z,96077.97
2024-01-15T03:50:57.038Z,96080.19
2024-01-15T03:53:25.515Z,96070.00
2024-01-15T03:55:54.121Z,96063.22
2024-01-15T03:58:22.554Z,96070.78
2024-01-15T04:00:50.812Z,96067.22
2024-01-15T04:03:19.426Z,96071.00
2024-01-15T04:05:48.055Z,96086.44
2024-01-15T04:08:18.038Z,96071.75
2024-01-15T04:10:46.696Z,96076.13
2024-01-15T04:13:15.159Z,96069.06
2024-01-15T04:15:43.603Z,96076.34
2024-01-15T04:18:12.237Z,96076.75
2024-01-15T04:20:40.738Z,96072.09
2024-01-15T04:23:09.216Z,96073.53
2024-01-15T04:25:38.953Z,96076.06
2024-01-15T04:28:07.746Z,96059.47
2024-01-15T04:30:36.179Z,96055.59
2024-01-15T04:33:05.118Z,96030.75
2024-01-15T04:35:33.616Z,96046.81
2024-01-15T04:38:02.084Z,96053.31
2024-01-15T04:40:30.378Z,96052.63
2024-01-15T04:43:00.302Z,96045.59
2024-01-15T04:45:30.148Z,96035.06
2024-01-15T04:47:59.199Z,96047.63
2024-01-15T04:50:27.618Z,96040.88
2024-01-15T04:52:56.188Z,96058.69
2024-01-15T04:55:24.572Z,96067.81
2024-01-15T04:57:53.138Z,96069.06
2024-01-15T05:00:23.159Z,96053.75
2024-01-15T05:02:51.835Z,96059.25
2024-01-15T05:05:20.337Z,96046.47
2024-01-15T05:07:49.336Z,96056.06
2024-01-15T05:10:17.636Z,96041.44
2024-01-15T05:12:46.496Z,96050.34
2024-01-15T05:15:15.002Z,96029.59
2024-01-15T05:17:45.017Z,96042.72
2024-01-15T05:20:13.864Z,96021.50
2024-01-15T05:22:42.485Z,96013.03
2024-01-15T05:25:10.922Z,96027.53
2024-01-15T05:27:39.404Z,96018.75
2024-01-15T05:30:08.695Z,96033.13
2024-01-15T05:32:37.387Z,96019.50
2024-01-15T05:35:07.753Z,96036.22
2024-01-15T05:37:36.646Z,96021.63
2024-01-15T05:40:06.660Z,96032.25
2024-01-15T05:42:35.267Z,96023.47
2024-01-15T05:45:05.797Z,96022.38
2024-01-15T05:47:34.483Z,96014.75
2024-01-15T05:50:03.673Z,96009.84
2024-01-15T05:52:33.793Z,96016.94
2024-01-15T05:55:02.202Z,96021.50
2024-01-15T05:57:30.754Z,96031.88
2024-01-15T05:59:59.230Z,96026.84
2024-01-15T06:02:27.876Z,96021.38
2024-01-15T06:04:56.767Z,96026.41
2024-01-15T06:07:25.588Z,96034.25
2024-01-15T06:09:55.453Z,96033.47
2024-01-15T06:12:25.010Z,96027.91
2024-01-15T06:14:53.676Z,96023.66
2024-01-15T06:17:22.466Z,96020.25
2024-01-15T06:19:51.067Z,96021.63
2024-01-15T06:22:20.357Z,96032.19
2024-01-15T06:24:48.833Z,96035.06
2024-01-15T06:27:18.967Z,96028.19
2024-01-15T06:29:50.692Z,96029.88
2024-01-15T06:32:19.847Z,96033.81
2024-01-15T06:34:48.190Z,96033.91
2024-01-15T06:37:16.893Z,96028.94
2024-01-15T06:39:45.322Z,96030.88
2024-01-15T06:42:14.200Z,96039.19
2024-01-15T06:44:43.738Z,96053.94
2024-01-15T06:47:12.183Z,96061.56
2024-01-15T06:49:40.524Z,96052.28
2024-01-15T06:52:09.378Z,96054.69
2024-01-15T06:54:37.647Z,96060.50
2024-01-15T06:57:08.177Z,96073.41
2024-01-15T06:59:36.864Z,96062.66
2024-01-15T07:02:07.239Z,96069.25
2024-01-15T07:04:39.201Z,96066.56
2024-01-15T07:07:09.103Z,96074.56
2024-01-15T07:09:37.656Z,96078.66
2024-01-15T07:12:06.671Z,96069.97
2024-01-15T07:14:36.704Z,96087.88
2024-01-15T07:17:07.755Z,96091.66
2024-01-15T07:19:36.107Z,96091.09
2024-01-15T07:22:05.661Z,96090.75
2024-01-15T07:24:35.363Z,96100.66
2024-01-15T07:27:06.050Z,96110.91
2024-01-15T07:29:37.245Z,96106.81
2024-01-15T07:32:09.016Z,96090.28
2024-01-15T07:34:37.398Z,96109.00
2024-01-15T07:37:06.159Z,96104.22
2024-01-15T07:39:34.421Z,96106.47
2024-01-15T07:42:03.692Z,96096.78
2024-01-15T07:44:31.949Z,96079.34
2024-01-15T07:47:00.551Z,96101.59
2024-01-15T07:49:31.023Z,96098.59
2024-01-15T07:51:59.750Z,96105.38
2024-01-15T07:54:28.204Z,96115.41
2024-01-15T07:56:57.464Z,96109.38
2024-01-15T07:59:26.093Z,96114.41
2024-01-15T08:01:55.277Z,96120.19
2024-01-15T08:04:24.239Z,96118.38
2024-01-15T08:06:54.450Z,96125.53
2024-01-15T08:09:23.212Z,96111.66
2024-01-15T08:11:52.083Z,96115.41
2024-01-15T08:14:20.585Z,96124.28
2024-01-15T08:16:49.172Z,96126.13
2024-01-15T08:19:17.759Z,96127.72
2024-01-15T08:21:46.580Z,96136.84
2024-01-15T08:24:18.148Z,96135.31
2024-01-15T08:26:47.252Z,96129.03
2024-01-15T08:29:15.711Z,96123.13
2024-01-15T08:31:44.410Z,96135.38
2024-01-15T08:34:12.782Z,96132.69
2024-01-15T08:36:42.005Z,96124.13
2024-01-15T08:39:10.710Z,96129.59
2024-01-15T08:41:40.628Z,96134.69
2024-01-15T08:44:09.130Z,96139.34
2024-01-15T08:46:37.918Z,96133.66
2024-01-15T08:49:07.406Z,96132.47
2024-01-15T08:51:36.155Z,96125.44
2024-01-15T08:54:04.494Z,96123.34
2024-01-15T08:56:33.225Z,96130.13
2024-01-15T08:59:02.729Z,96127.69
2024-01-15T09:01:32.232Z,96135.69
2024-01-15T09:04:00.972Z,96145.19
2024-01-15T09:06:33.125Z,96140.56
2024-01-15T09:09:02.596Z,96149.84
2024-01-15T09:11:31.453Z,96115.47
2024-01-15T09:14:00.193Z,96145.03
2024-01-15T09:16:30.422Z,96145.06
2024-01-15T09:18:59.237Z,96146.63
2024-01-15T09:21:28.349Z,96149.44
2024-01-15T09:23:56.556Z,96152.50
2024-01-15T09:26:25.324Z,96148.06
2024-01-15T09:28:54.511Z,96153.81
2024-01-15T09:31:23.241Z,96153.91
2024-01-15T09:33:57.373Z,96165.19
2024-01-15T09:36:26.893Z,96150.59
2024-01-15T09:38:55.042Z,96131.91
2024-01-15T09:41:23.656Z,96143.75
2024-01-15T09:43:53.302Z,96140.56
2024-01-15T09:46:21.818Z,96139.75
2024-01-15T09:48:50.698Z,96142.94
2024-01-15T09:51:20.586Z,96144.50
2024-01-15T09:53:49.454Z,96140.25
2024-01-15T09:56:18.304Z,96141.97
2024-01-15T09:58:46.734Z,96147.03
2024-01-15T10:01:16.659Z,96144.13
2024-01-15T10:03:45.259Z,96137.84
2024-01-15T10:06:14.140Z,96132.84
2024-01-15T10:08:43.894Z,96132.16
2024-01-15T10:11:12.487Z,96132.78
2024-01-15T10:13:42.104Z,96135.47
2024-01-15T10:16:12.549Z,96131.31
2024-01-15T10:18:41.307Z,96131.59
2024-01-15T10:21:10.373Z,96131.91
2024-01-15T10:23:38.593Z,96131.75
2024-01-15T10:26:08.622Z,96117.16
2024-01-15T10:28:36.829Z,96121.41
2024-01-15T10:31:06.402Z,96113.38
2024-01-15T10:33:35.124Z,96120.97
2024-01-15T10:36:04.004Z,96122.44
2024-01-15T10:38:32.517Z,96119.00
2024-01-15T10:41:01.086Z,96114.31
2024-01-15T10:43:30.892Z,96122.56
2024-01-15T10:45:59.700Z,96111.22
2024-01-15T10:48:30.139Z,96104.56
2024-01-15T10:50:59.579Z,96108.72
2024-01-15T10:53:29.294Z,96079.72
2024-01-15T10:55:58.900Z,96093.88
2024-01-15T10:58:30.938Z,96101.25
2024-01-15T11:00:59.725Z,96090.69
2024-01-15T11:03:28.502Z,96048.19
2024-01-15T11:05:56.111Z,96090.69
2024-01-15T11:08:24.484Z,96110.25
2024-01-15T11:10:53.758Z,96090.94
2024-01-15T11:13:26.300Z,96096.28
2024-01-15T11:16:02.754Z,96099.41
2024-01-15T11:18:32.167Z,96093.16
2024-01-15T11:21:24.514Z,96074.75
2024-01-15T11:23:55.057Z,96094.81
2024-01-15T11:26:33.936Z,96090.41
2024-01-15T11:29:04.327Z,96057.34
2024-01-15T11:32:02.046Z,96085.66
2024-01-15T11:34:53.972Z,96098.31
2024-01-15T11:37:24.998Z,96094.47
2024-01-15T11:39:56.983Z,96080.59
2024-01-15T11:42:29.089Z,96083.97
2024-01-15T11:44:57.526Z,96066.88
2024-01-15T11:48:05.863Z,96083.88
2024-01-15T11:50:34.735Z,96084.50
2024-01-15T11:53:07.333Z,96079.47
2024-01-15T11:55:37.593Z,96072.59
2024-01-15T11:58:11.254Z,96064.28
2024-01-15T12:00:42.991Z,96082.97
2024-01-15T12:03:13.962Z,96084.34
2024-01-15T12:05:43.382Z,96075.28
2024-01-15T12:08:13.113Z,96080.00
2024-01-15T12:10:43.258Z,96073.06
2024-01-15T12:13:14.305Z,96083.66
2024-01-15T12:15:44.470Z,96093.09
2024-01-15T12:18:16.664Z,96083.56
2024-01-15T12:20:48.827Z,96076.63
2024-01-15T12:23:19.316Z,96086.72
2024-01-15T12:25:48.578Z,96087.56
2024-01-15T12:28:18.105Z,96082.56
2024-01-15T12:30:51.033Z,96074.16
2024-01-15T12:33:22.754Z,96073.13
2024-01-15T12:35:51.240Z,96093.34
2024-01-15T12:38:22.270Z,96081.50
2024-01-15T12:40:51.143Z,96090.00
2024-01-15T12:43:19.811Z,96084.59
2024-01-15T12:45:48.363Z,96100.09
2024-01-15T12:48:19.385Z,96096.34
2024-01-15T12:50:49.813Z,96087.56
2024-01-15T12:53:19.113Z,96107.72
2024-01-15T12:55:47.642Z,96085.00
2024-01-15T12:58:17.995Z,96117.41
2024-01-15T13:00:48.386Z,96108.63
2024-01-15T13:03:17.285Z,96097.59
2024-01-15T13:05:46.592Z,96101.44
2024-01-15T13:08:16.764Z,96092.13
2024-01-15T13:10:45.475Z,96091.75
2024-01-15T13:13:14.251Z,96086.59
2024-01-15T13:15:43.332Z,96098.00
2024-01-15T13:18:12.055Z,96097.50
2024-01-15T13:20:40.715Z,96091.75
2024-01-15T13:23:11.138Z,96085.50
2024-01-15T13:25:41.033Z,96079.19
2024-01-15T13:28:10.512Z,96084.22
2024-01-15T13:30:39.838Z,96096.59
2024-01-15T13:33:09.841Z,96085.03
2024-01-15T13:35:38.335Z,96070.88
2024-01-15T13:38:07.347Z,96080.47
2024-01-15T13:40:35.542Z,96066.22
2024-01-15T13:43:09.612Z,96086.44
2024-01-15T13:45:38.665Z,96083.09
2024-01-15T13:48:09.490Z,96074.13
2024-01-15T13:50:38.194Z,96083.69
2024-01-15T13:53:06.724Z,96084.13
2024-01-15T13:55:35.009Z,96082.06
2024-01-15T13:58:07.011Z,96083.34
2024-01-15T14:00:35.617Z,96081.50
2024-01-15T14:03:04.818Z,96079.00
2024-01-15T14:05:33.928Z,96078.88
2024-01-15T14:08:02.683Z,96087.44
2024-01-15T14:10:30.838Z,96090.53
2024-01-15T14:12:59.363Z,96078.19
2024-01-15T14:15:29.059Z,96080.31
2024-01-15T14:17:59.212Z,96073.88
2024-01-15T14:20:27.760Z,96058.34
2024-01-15T14:22:56.756Z,96090.28
2024-01-15T14:25:25.482Z,96086.97
2024-01-15T14:27:54.073Z,96068.03
2024-01-15T14:30:22.325Z,96086.19
2024-01-15T14:32:52.352Z,96076.22
2024-01-15T14:35:20.861Z,96089.38
2024-01-15T14:37:49.599Z,96077.28
2024-01-15T14:40:18.358Z,96088.00
2024-01-15T14:42:47.256Z,96088.56
2024-01-15T14:45:15.872Z,96093.50
2024-01-15T14:47:45.680Z,96088.25
2024-01-15T14:50:15.968Z,96095.91
2024-01-15T14:52:46.148Z,96097.72
2024-01-15T14:55:15.391Z,96098.63
2024-01-15T14:57:44.853Z,96089.63
2024-01-15T15:00:17.061Z,96101.72
2024-01-15T15:02:46.798Z,96096.34
2024-01-15T15:05:18.338Z,96106.50
2024-01-15T15:07:49.205Z,96098.47
2024-01-15T15:10:17.960Z,96095.16
2024-01-15T15:12:46.655Z,96114.59
2024-01-15T15:15:21.493Z,96105.31
2024-01-15T15:17:50.469Z,96111.25
2024-01-15T15:20:21.778Z,96103.22
2024-01-15T15:22:50.459Z,96113.91
2024-01-15T15:25:19.364Z,96123.38
2024-01-15T15:27:48.542Z,96125.44
2024-01-15T15:30:17.623Z,96127.72
2024-01-15T15:32:46.260Z,96116.03
2024-01-15T15:35:15.299Z,96120.13
2024-01-15T15:37:45.642Z,96120.44
2024-01-15T15:40:14.342Z,96122.81
2024-01-15T15:42:43.399Z,96125.53
2024-01-15T15:45:12.269Z,96122.75
2024-01-15T15:47:41.031Z,96122.81
2024-01-15T15:50:10.485Z,96131.38
2024-01-15T15:52:39.533Z,96127.25
2024-01-15T15:55:10.408Z,96142.13
2024-01-15T15:57:38.803Z,96125.03
2024-01-15T16:00:09.257Z,96144.50
2024-01-15T16:02:38.228Z,96140.94
2024-01-15T16:05:11.301Z,96130.13
2024-01-15T16:07:40.169Z,96133.06
2024-01-15T16:10:11.191Z,96141.06
2024-01-15T16:12:40.387Z,96144.19
2024-01-15T16:15:20.068Z,96141.56
2024-01-15T16:23:17.178Z,96131.53
2024-01-15T16:23:31.546Z,96140.66
2024-01-15T16:24:04.637Z,96142.38
2024-01-15T16:26:18.102Z,96136.16
2024-01-15T16:28:47.071Z,96129.03
2024-01-15T16:31:17.568Z,96134.66
2024-01-15T16:33:50.237Z,96129.19
2024-01-15T16:36:23.074Z,96126.00
2024-01-15T16:38:52.329Z,96122.06
2024-01-15T16:41:22.225Z,96118.34
2024-01-15T16:43:50.862Z,96128.50
2024-01-15T16:46:19.588Z,96122.22
2024-01-15T16:48:48.269Z,96128.59
2024-01-15T16:51:17.038Z,96124.66
2024-01-15T16:53:45.768Z,96135.53
2024-01-15T16:56:14.081Z,96129.94
2024-01-15T16:58:44.046Z,96135.84
2024-01-15T17:01:13.024Z,96138.84
2024-01-15T17:03:41.728Z,96142.16
2024-01-15T17:06:09.983Z,96131.19
2024-01-15T17:08:38.772Z,96132.31
2024-01-15T17:11:07.215Z,96144.63
2024-01-15T17:13:36.038Z,96143.41
2024-01-15T17:16:07.239Z,96148.75
2024-01-15T17:18:35.944Z,96156.91
2024-01-15T17:21:04.199Z,96166.03
2024-01-15T17:23:33.160Z,96144.66
2024-01-15T17:26:01.475Z,96157.53
2024-01-15T17:28:30.215Z,96176.09
2024-01-15T17:31:00.044Z,96156.13
2024-01-15T17:33:30.239Z,96157.88
2024-01-15T17:36:00.396Z,96159.84
2024-01-15T17:38:30.207Z,96156.84
2024-01-15T17:40:59.151Z,96150.06
2024-01-15T17:43:28.358Z,96162.75
2024-01-15T17:46:01.844Z,96171.31
2024-01-15T17:48:32.569Z,96186.88
2024-01-15T17:51:01.753Z,96185.22
2024-01-15T17:53:30.358Z,96172.50
2024-01-15T17:55:58.994Z,96175.91
2024-01-15T17:58:31.998Z,96174.28
2024-01-15T18:01:03.195Z,96178.50
2024-01-15T18:03:33.347Z,96183.22
2024-01-15T18:06:02.575Z,96172.50
2024-01-15T18:08:31.160Z,96185.19
2024-01-15T18:10:59.677Z,96180.66
2024-01-15T18:13:28.289Z,96179.59
2024-01-15T18:15:58.764Z,96173.38
2024-01-15T18:18:27.703Z,96179.22
2024-01-15T18:20:57.724Z,96182.84
2024-01-15T18:23:26.599Z,96162.69
2024-01-15T18:25:56.850Z,96164.28
2024-01-15T18:28:25.738Z,96172.34
2024-01-15T18:30:54.587Z,96176.16
2024-01-15T18:33:24.448Z,96179.78
2024-01-15T18:35:53.503Z,96179.16
2024-01-15T18:38:23.666Z,96170.31
2024-01-15T18:40:53.027Z,96158.50
2024-01-15T18:43:23.080Z,96172.13
2024-01-15T18:45:51.672Z,96180.34
2024-01-15T18:48:20.594Z,96181.28
2024-01-15T18:50:49.475Z,96194.69
2024-01-15T18:53:18.205Z,96195.75
2024-01-15T18:55:48.096Z,96190.53
2024-01-15T18:58:18.135Z,96208.81
2024-01-15T19:00:46.949Z,96220.50
2024-01-15T19:03:15.494Z,96221.63
2024-01-15T19:05:44.657Z,96204.16
2024-01-15T19:08:13.387Z,96219.53
2024-01-15T19:10:41.881Z,96213.72
2024-01-15T19:13:13.399Z,96211.44
2024-01-15T19:15:41.848Z,96222.13
2024-01-15T19:18:11.312Z,96231.97
2024-01-15T19:20:39.984Z,96217.47
2024-01-15T19:23:09.657Z,96227.09
2024-01-15T19:25:38.409Z,96226.81
2024-01-15T19:28:08.437Z,96215.19
2024-01-15T19:30:39.434Z,96223.09
2024-01-15T19:33:12.512Z,96223.91
2024-01-15T19:35:41.236Z,96224.75
2024-01-15T19:38:10.465Z,96219.41
2024-01-15T19:40:39.222Z,96236.38
2024-01-15T19:43:08.399Z,96222.88
2024-01-15T19:45:39.441Z,96227.44
2024-01-15T19:48:08.607Z,96234.22
2024-01-15T19:50:37.418Z,96241.72
2024-01-15T19:53:06.592Z,96239.66
2024-01-15T19:55:35.385Z,96235.88
2024-01-15T19:58:04.414Z,96239.41
2024-01-15T20:00:33.211Z,96233.69
2024-01-15T20:03:04.047Z,96240.56
2024-01-15T20:05:33.130Z,96250.22
2024-01-15T20:08:05.244Z,96243.53
2024-01-15T20:10:35.253Z,96249.22
2024-01-15T20:13:03.768Z,96239.66
2024-01-15T20:15:32.351Z,96254.00
2024-01-15T20:18:00.988Z,96250.66
2024-01-15T20:20:31.219Z,96248.75
2024-01-15T20:23:01.881Z,96254.16
2024-01-15T20:25:30.722Z,96260.53
2024-01-15T20:27:59.532Z,96260.06
2024-01-15T20:30:29.357Z,96247.94
2024-01-15T20:32:58.295Z,96272.22
2024-01-15T20:35:26.653Z,96278.19
2024-01-15T20:37:56.877Z,96279.88
2024-01-15T20:40:25.196Z,96289.47
2024-01-15T20:42:53.717Z,96280.06
2024-01-15T20:45:23.596Z,96284.69
2024-01-15T20:47:53.444Z,96285.78
2024-01-15T20:50:22.060Z,96282.97
2024-01-15T20:52:50.791Z,96284.38
2024-01-15T20:55:21.045Z,96286.84
2024-01-15T20:57:49.593Z,96284.47
2024-01-15T21:00:22.264Z,96288.53
2024-01-15T21:02:51.495Z,96299.53
2024-01-15T21:05:20.618Z,96303.28
2024-01-15T21:07:51.857Z,96301.19
2024-01-15T21:10:22.849Z,96294.69
2024-01-15T21:12:51.440Z,96306.44
2024-01-15T21:15:19.925Z,96317.00
2024-01-15T21:17:50.523Z,96307.28
2024-01-15T21:20:19.340Z,96307.38
2024-01-15T21:22:47.922Z,96299.34
2024-01-15T21:25:16.377Z,96303.19
2024-01-15T21:27:47.384Z,96325.88
2024-01-15T21:30:17.093Z,96325.78
2024-01-15T21:32:45.817Z,96325.75
2024-01-15T21:35:14.223Z,96336.97
2024-01-15T21:37:44.339Z,96332.31
2024-01-15T21:40:13.596Z,96333.28
2024-01-15T21:42:42.532Z,96336.78
2024-01-15T21:45:12.290Z,96338.88
2024-01-15T21:47:42.452Z,96337.25
2024-01-15T21:50:11.284Z,96327.25
2024-01-15T21:52:39.907Z,96347.94
2024-01-15T21:55:11.017Z,96346.66
2024-01-15T21:57:39.765Z,96344.94
2024-01-15T22:00:09.373Z,96337.16
2024-01-15T22:02:45.162Z,96326.97
2024-01-15T22:05:14.529Z,96348.00
2024-01-15T22:07:44.704Z,96351.63
2024-01-15T22:10:14.201Z,96348.25
2024-01-15T22:12:43.084Z,96351.25
2024-01-15T22:15:14.334Z,96351.06
2024-01-15T22:17:44.578Z,96341.84
2024-01-15T22:20:13.806Z,96348.41
2024-01-15T22:22:42.456Z,96363.44
2024-01-15T22:25:11.014Z,96364.16
2024-01-15T22:27:39.508Z,96366.69
2024-01-15T22:30:10.020Z,96384.53
2024-01-15T22:32:39.121Z,96379.69
2024-01-15T22:35:12.013Z,96385.50
2024-01-15T22:37:44.130Z,96396.94
2024-01-15T22:40:15.335Z,96404.97
2024-01-15T22:42:43.738Z,96400.41
2024-01-15T22:45:16.614Z,96403.31
2024-01-15T22:47:46.534Z,96408.38
2024-01-15T22:50:16.600Z,96398.34
2024-01-15T22:52:44.147Z,96401.28
2024-01-15T22:55:14.101Z,96401.00
2024-01-15T22:57:43.401Z,96414.09
2024-01-15T23:00:19.671Z,96405.00
2024-01-15T23:02:49.148Z,96407.16
2024-01-15T23:05:19.125Z,96413.75
2024-01-15T23:07:47.815Z,96414.25
2024-01-15T23:10:16.367Z,96413.19
2024-01-15T23:12:44.977Z,96423.72
2024-01-15T23:15:14.596Z,96431.53
2024-01-15T23:17:45.216Z,96429.88
2024-01-15T23:20:14.201Z,96432.69
2024-01-15T23:22:44.084Z,96437.50
2024-01-15T23:25:12.567Z,96437.13
2024-01-15T23:27:41.146Z,96445.41
2024-01-15T23:30:10.612Z,96446.97
2024-01-15T23:32:39.545Z,96443.81
2024-01-15T23:35:09.143Z,96434.31
2024-01-15T23:37:39.255Z,96454.47
2024-01-15T23:40:10.269Z,96450.56
2024-01-15T23:42:38.905Z,96443.81
2024-01-15T23:45:08.663Z,96443.59
2024-01-15T23:47:37.904Z,96448.91
2024-01-15T23:50:06.763Z,96443.66
2024-01-15T23:52:35.342Z,96438.75
2024-01-15T23:55:03.595Z,96455.16
2024-01-15T23:57:33.563Z,96449.31
